Weather reports worldwide

Advertisment
Puebla De D. Rodrigo, Spain (8271): temperature & dewpoint: 06.12.2019 11:00:00 - 12.12.2019 11:00:00 (CET)Puebla De D. Rodrigo, Spain (8271): wind speed & gusts: 06.12.2019 11:00:00 - 12.12.2019 11:00:00 (CET)Puebla De D. Rodrigo, Spain (8271): wind direction: 06.12.2019 11:00:00 - 12.12.2019 11:00:00 (CET)Puebla De D. Rodrigo, Spain (8271): reduced air pressure: 06.12.2019 11:00:00 - 12.12.2019 11:00:00 (CET)Puebla De D. Rodrigo, Spain (8271): precipitation: 06.12.2019 11:00:00 - 12.12.2019 11:00:00 (CET)
Date & Time tt [°C] td [°C] ff [km/h] ff [kn] fx [km/h] fx [kn] dd ppp [hPa] rr [mm]
12.12.2019 11:00:00 - - - - - - - - -
12.12.2019 10:00:00 5,8 5,3 1 1 7 4 SSW 1020,6 0,0
12.12.2019 09:00:00 0,9 0,4 0 0 6 3 E 1021,2 0,0
12.12.2019 08:00:00 0,9 0,4 0 0 4 2 W 1021,7 0,0
12.12.2019 07:00:00 0,7 0,2 0 0 4 2 NW 1021,5 -
12.12.2019 06:00:00 0,6 0,2 1 1 9 5 WNW 1021,3 0,0
12.12.2019 05:00:00 0,8 0,4 4 2 7 4 NE 1022,1 0,0
12.12.2019 04:00:00 0,3 0,0 1 1 4 2 SSW 1022,4 0,0
12.12.2019 03:00:00 0,8 0,4 0 0 7 4 SE 1023,3 0,0
12.12.2019 02:00:00 1,4 1,1 3 1 7 4 WNW 1022,9 0,0
12.12.2019 01:00:00 1,6 1,1 1 1 5 3 SW 1022,9 -
12.12.2019 00:00:00 1,2 0,6 3 1 8 4 N 1023,4 0,0
11.12.2019 23:00:00 3,6 3,0 0 0 4 2 ENE 1023,2 0,0
11.12.2019 22:00:00 3,8 3,0 1 0 10 5 SW 1022,9 0,0
11.12.2019 21:00:00 5,4 4,5 4 2 7 4 WSW 1022,6 0,0
11.12.2019 20:00:00 5,9 4,6 2 1 10 5 WSW 1022,2 0,0
11.12.2019 19:00:00 7,0 5,0 5 3 10 5 SW 1021,4 -
11.12.2019 18:00:00 7,9 5,0 5 3 12 7 WSW 1021,0 0,0
11.12.2019 17:00:00 10,0 5,5 5 3 16 9 W 1019,8 0,0
11.12.2019 16:00:00 9,6 5,5 6 3 19 10 WSW 1019,2 0,0
11.12.2019 15:00:00 9,5 7,0 4 2 19 10 WSW 1018,7 0,0
11.12.2019 14:00:00 8,8 7,8 5 3 16 8 W 1018,6 0,0
11.12.2019 13:00:00 6,7 6,1 2 1 6 3 NE 1019,9 -
11.12.2019 12:00:00 5,1 4,5 3 2 6 3 ENE 1021,4 0,0
11.12.2019 11:00:00 3,7 3,2 1 0 4 2 S 1021,9 0,0
11.12.2019 10:00:00 3,0 2,5 1 1 6 4 NE 1022,3 0,0
11.12.2019 09:00:00 1,3 0,9 1 0 3 2 SSE 1021,9 0,0
11.12.2019 08:00:00 1,2 0,9 0 0 4 2 ESE 1021,5 0,0
11.12.2019 07:00:00 1,2 0,9 0 0 2 1 N 1021,4 -
11.12.2019 06:00:00 1,0 0,6 0 0 8 4 NNW 1021,3 0,0
11.12.2019 05:00:00 1,6 1,3 0 0 4 2 S 1021,7 0,0
11.12.2019 04:00:00 1,6 1,3 0 0 1 1 N 1022,2 0,0
11.12.2019 03:00:00 1,9 1,3 0 0 6 3 N 1022,3 0,0
11.12.2019 02:00:00 2,3 1,9 1 0 3 2 WNW 1022,2 0,0
11.12.2019 01:00:00 3,3 2,7 0 0 1 1 N 1022,3 -
11.12.2019 00:00:00 3,8 3,2 0 0 3 2 ENE 1022,9 0,0
10.12.2019 23:00:00 4,5 3,4 1 1 6 4 SW 1022,7 0,0
10.12.2019 22:00:00 5,1 3,6 0 0 5 3 SE 1022,3 0,0
10.12.2019 21:00:00 6,5 3,9 0 0 4 2 N 1022,4 0,0
10.12.2019 20:00:00 7,1 3,4 0 0 0 0 N 1022,4 0,0
10.12.2019 19:00:00 8,5 2,5 0 0 8 4 ESE 1022,0 -
10.12.2019 18:00:00 10,0 1,3 2 1 7 4 WNW 1021,7 0,0
10.12.2019 17:00:00 11,6 0,9 0 0 0 0 N 1021,8 0,0
10.12.2019 16:00:00 11,8 0,9 0 0 16 8 S 1021,8 0,0
10.12.2019 15:00:00 12,2 2,1 5 3 11 6 ESE 1022,0 0,0
10.12.2019 14:00:00 11,2 2,3 5 3 25 13 E 1023,5 0,0
10.12.2019 13:00:00 9,1 3,2 9 5 16 8 ESE 1024,4 -
10.12.2019 12:00:00 8,6 2,9 5 3 13 7 ESE 1024,8 0,0
10.12.2019 11:00:00 7,3 3,9 5 3 14 7 E 1025,8 0,0
10.12.2019 10:00:00 5,8 3,6 6 3 19 10 E 1025,9 0,0
10.12.2019 09:00:00 5,5 3,9 9 5 21 12 ESE 1025,9 0,0
10.12.2019 08:00:00 5,0 3,8 12 7 21 11 E 1026,1 0,0
10.12.2019 07:00:00 5,0 3,8 13 7 21 11 E 1026,2 -
10.12.2019 06:00:00 5,3 4,1 11 6 17 9 E 1026,2 0,0
10.12.2019 05:00:00 5,5 4,8 11 6 18 10 E 1025,9 0,0
10.12.2019 04:00:00 5,6 5,0 11 6 17 9 E 1026,1 0,0
10.12.2019 03:00:00 6,2 5,6 8 4 14 7 E 1026,1 0,0
10.12.2019 02:00:00 6,5 5,3 5 3 9 5 E 1026,1 0,0
10.12.2019 01:00:00 7,2 5,8 3 2 6 3 SE 1026,4 -
10.12.2019 00:00:00 7,5 5,9 0 0 9 5 ESE 1026,3 0,0
09.12.2019 23:00:00 8,5 6,1 1 1 8 4 ENE 1026,1 0,0
09.12.2019 22:00:00 9,2 6,7 2 1 10 5 NNE 1025,7 0,0
09.12.2019 21:00:00 9,5 7,0 1 0 8 5 W 1025,4 0,0
09.12.2019 20:00:00 10,0 7,4 0 0 10 5 N 1025,1 0,0
09.12.2019 19:00:00 10,3 7,8 2 1 8 4 W 1024,5 -
09.12.2019 18:00:00 10,4 7,4 1 0 - - W 1024,3 -
09.12.2019 17:00:00 - - - - - - - - -
09.12.2019 16:00:00 - - - - - - - - -
09.12.2019 15:00:00 - - - - - - - - -
09.12.2019 14:00:00 - - - - - - - - -
09.12.2019 13:00:00 10,0 8,4 2 1 8 4 E 1025,8 -
09.12.2019 12:00:00 9,8 8,8 4 2 8 5 ENE 1026,3 0,0
09.12.2019 11:00:00 9,3 8,7 2 1 11 6 E 1026,1 0,0
09.12.2019 10:00:00 9,2 8,7 2 1 8 5 SE 1025,6 0,0
09.12.2019 09:00:00 9,1 8,5 3 2 8 4 SE 1024,7 0,0
09.12.2019 08:00:00 9,0 8,4 1 1 5 3 E 1024,5 0,0
09.12.2019 07:00:00 8,8 8,3 0 0 4 2 N 1023,6 -
09.12.2019 06:00:00 8,8 8,3 0 0 4 2 SW 1023,4 0,1
09.12.2019 05:00:00 8,7 8,1 0 0 4 2 NNE 1023,6 0,0
09.12.2019 04:00:00 8,9 8,4 0 0 3 2 S 1023,1 0,0
09.12.2019 03:00:00 8,6 8,0 0 0 4 2 SE 1022,8 0,0
09.12.2019 02:00:00 8,8 8,3 0 0 4 2 SSE 1022,7 0,0
09.12.2019 01:00:00 9,0 8,1 0 0 5 3 N 1022,9 -
09.12.2019 00:00:00 8,8 7,7 0 0 5 3 NNW 1023,2 0,0
08.12.2019 23:00:00 8,9 8,0 1 1 7 4 WSW 1022,8 0,0
08.12.2019 22:00:00 8,3 7,4 5 3 7 4 SW 1022,3 0,0
08.12.2019 21:00:00 8,4 7,3 3 2 13 7 SW 1022,5 0,0
08.12.2019 20:00:00 8,8 7,7 6 3 10 5 WSW 1021,6 0,0
08.12.2019 19:00:00 8,6 7,6 1 1 4 2 NW 1021,8 -
08.12.2019 18:00:00 9,1 6,8 0 0 0 0 N 1021,7 0,0
08.12.2019 17:00:00 9,8 6,8 0 0 4 2 N 1021,4 0,0
08.12.2019 16:00:00 9,2 6,8 1 1 5 3 ENE 1021,2 0,0
08.12.2019 15:00:00 8,0 7,3 0 0 5 3 NNE 1021,4 0,0
08.12.2019 14:00:00 7,1 6,5 0 0 6 3 ENE 1021,8 0,0
08.12.2019 13:00:00 5,4 4,8 1 0 8 5 E 1022,8 -
08.12.2019 12:00:00 4,6 3,9 2 1 11 6 E 1024,0 0,0
08.12.2019 11:00:00 4,0 3,4 3 1 8 5 ESE 1024,3 0,0
08.12.2019 10:00:00 3,7 3,0 1 0 7 4 E 1023,7 0,0
08.12.2019 09:00:00 3,5 2,9 0 0 7 4 E 1023,7 0,0
08.12.2019 08:00:00 3,5 2,9 4 2 10 5 ENE 1023,0 0,1
08.12.2019 07:00:00 4,0 3,4 1 1 10 5 NE 1022,3 -
08.12.2019 06:00:00 4,3 3,8 1 1 7 4 ENE 1022,3 0,0
08.12.2019 05:00:00 4,3 3,8 2 1 9 5 ENE 1022,3 0,0
08.12.2019 04:00:00 4,5 3,9 1 1 11 6 ENE 1022,3 0,0
08.12.2019 03:00:00 4,7 4,1 2 1 8 4 SE 1022,6 0,0
08.12.2019 02:00:00 5,1 4,6 1 1 6 4 NE 1022,3 0,0
08.12.2019 01:00:00 5,2 4,8 2 1 8 5 NE 1022,6 -
08.12.2019 00:00:00 5,5 5,0 3 2 24 13 ENE 1022,8 0,0
07.12.2019 23:00:00 5,5 5,0 1 0 6 4 NE 1022,6 0,0
07.12.2019 22:00:00 5,4 4,8 1 1 7 4 NNE 1022,1 0,0
07.12.2019 21:00:00 5,7 5,1 0 0 7 4 N 1022,0 0,0
07.12.2019 20:00:00 6,0 5,0 1 1 6 3 E 1021,5 0,0
07.12.2019 19:00:00 6,5 5,0 2 1 9 5 ESE 1020,9 -
07.12.2019 18:00:00 8,5 4,6 0 0 5 3 SE 1020,0 0,0
07.12.2019 17:00:00 9,8 4,1 3 2 12 7 E 1019,7 0,0
07.12.2019 16:00:00 10,4 4,8 6 4 14 7 SE 1018,8 0,0
07.12.2019 15:00:00 9,3 5,0 4 2 13 7 SSE 1019,0 0,0
07.12.2019 14:00:00 8,5 5,5 4 2 16 9 SE 1019,7 0,0
07.12.2019 13:00:00 7,4 5,8 6 4 16 9 E 1020,5 -
07.12.2019 12:00:00 6,9 5,9 8 5 21 11 SE 1021,2 0,0
07.12.2019 11:00:00 6,2 5,8 1 1 7 4 E 1021,4 0,0
07.12.2019 10:00:00 5,2 4,8 1 1 5 3 E 1021,0 0,0
07.12.2019 09:00:00 4,2 3,8 0 0 0 0 N 1021,0 0,0
07.12.2019 08:00:00 4,1 3,6 0 0 0 0 N 1020,5 0,0
07.12.2019 07:00:00 3,4 3,0 0 0 0 0 N 1020,5 -
07.12.2019 06:00:00 2,7 2,3 0 0 0 0 N 1020,3 0,0
07.12.2019 05:00:00 2,7 2,3 0 0 0 0 N 1020,0 0,0
07.12.2019 04:00:00 3,9 3,4 0 0 0 0 N 1019,6 0,0
07.12.2019 03:00:00 4,1 3,6 0 0 1 1 N 1019,5 0,0
07.12.2019 02:00:00 5,0 4,5 3 1 6 3 SW 1019,4 0,0
07.12.2019 01:00:00 5,4 4,5 0 0 4 2 N 1019,3 -
07.12.2019 00:00:00 6,8 4,6 3 1 10 5 W 1018,8 0,0
06.12.2019 23:00:00 8,4 5,3 0 0 6 3 N 1018,2 0,0
06.12.2019 22:00:00 8,6 5,5 0 0 7 4 N 1017,8 0,0
06.12.2019 21:00:00 9,1 5,3 0 0 13 7 SSW 1017,5 0,0
06.12.2019 20:00:00 9,5 5,6 7 4 14 7 ENE 1017,3 0,0
06.12.2019 19:00:00 10,1 4,8 2 1 13 7 E 1016,7 -
06.12.2019 18:00:00 11,9 3,9 2 1 18 10 E 1015,7 0,0
06.12.2019 17:00:00 13,9 3,6 10 5 16 9 ENE 1014,9 0,0
06.12.2019 16:00:00 14,9 3,6 7 4 20 11 NE 1015,0 0,0
06.12.2019 15:00:00 14,9 3,6 9 5 20 11 E 1014,1 0,0
06.12.2019 14:00:00 15,2 5,1 10 5 37 20 ESE 1015,2 0,0
06.12.2019 13:00:00 14,6 5,5 5 3 16 9 SE 1016,2 -
06.12.2019 12:00:00 12,7 4,8 6 4 16 8 ESE 1016,8 0,0
06.12.2019 11:00:00 10,0 4,6 1 1 9 5 ENE 1017,8 0,0

tt = temperature
td = dewpoint
ff = wind speed
fx = gusts
dd = wind direction
ppp = reduced air pressure
rr = precipitation

Next stations